Terminal Aerodrome Forecast
Issued by NWS

Home | Current Version | Previous Version | Text Only | Print | Product List | Glossary On
Versions: 1 2 3 4 5 6 7 8 9 10 11 12 13 14 15 16 17
000
FTUS42 KTBW 271700
TAFPIE
TAF
KPIE 271724Z 2718/2818 07005KT P6SM FEW030
     FM271900 34007KT P6SM SCT050 SCT150
     FM280100 VRB04KT P6SM FEW050
     FM281400 11007KT P6SM FEW035 SCT250=

USA.gov is the U.S. government's official web portal to all federal, state and local government web resources and services.